Time;durP1;ratioP1;P1;durP2;ratioP2;P2;SDS_P1;SDS_P2;PMS_P1;PMS_P2;Temp;Humidity;BMP_temperature;BMP_pressure;BME280_temperature;BME280_humidity;BME280_pressure;Samples;Min_cycle;Max_cycle;Signal;HPM_P1;HPM_P2
2021/05/06 00:32:38;;;;;;;2.15;0.88;;;384.60;1254.40;;;;;;4975212;28;20050;-67
2021/05/06 00:35:11;;;;;;;4.97;1.15;;;384.50;1228.80;;;;;;4975094;28;20026;-67
2021/05/06 00:38:18;;;;;;;3.20;0.68;;;384.60;1254.40;;;;;;4974448;28;20057;-67
2021/05/06 00:57:14;;;;;;;1.55;1.15;;;384.50;1254.40;;;;;;4974621;28;20015;-68
2021/05/06 01:02:47;;;;;;;2.90;1.23;;;384.40;1280.00;;;;;;4975160;28;20050;-68
2021/05/06 01:08:15;;;;;;;2.00;1.00;;;384.40;1254.40;;;;;;4974839;28;20027;-68
2021/05/06 01:11:03;;;;;;;4.68;1.30;;;384.40;1254.40;;;;;;4974735;28;20031;-68
2021/05/06 01:13:36;;;;;;;1.83;1.20;;;384.40;1254.40;;;;;;4974453;28;20540;-68
2021/05/06 01:16:08;;;;;;;1.25;0.80;;;384.40;1254.40;;;;;;4974613;28;20369;-68
2021/05/06 01:18:38;;;;;;;3.75;1.10;;;384.40;1254.40;;;;;;4974830;28;20029;-67
2021/05/06 01:21:09;;;;;;;1.58;1.17;;;384.40;1254.40;;;;;;4974601;28;20102;-67
2021/05/06 01:23:43;;;;;;;2.33;0.93;;;384.40;1254.40;;;;;;4974476;28;20054;-66
2021/05/06 01:29:02;;;;;;;5.38;0.93;;;384.30;1254.40;;;;;;4974495;28;20448;-66
2021/05/06 01:31:34;;;;;;;3.50;1.20;;;384.40;1254.40;;;;;;4974449;28;20054;-67
2021/05/06 01:34:22;;;;;;;3.33;0.80;;;384.30;1254.40;;;;;;4974576;28;20466;-67
2021/05/06 01:37:30;;;;;;;2.72;0.82;;;384.40;1254.40;;;;;;4974618;28;20043;-67
2021/05/06 01:42:51;;;;;;;2.58;1.02;;;384.40;1254.40;;;;;;4974523;28;20385;-67
2021/05/06 01:48:11;;;;;;;3.63;1.10;;;384.40;1254.40;;;;;;4974500;28;20027;-67
2021/05/06 01:59:30;;;;;;;1.55;1.05;;;384.40;1254.40;;;;;;4977640;28;20034;-66
2021/05/06 02:01:56;;;;;;;2.13;1.17;;;384.40;1254.40;;;;;;4977620;28;20359;-67
2021/05/06 02:04:27;;;;;;;1.80;0.90;;;384.40;1254.40;;;;;;4977650;28;20035;-67
2021/05/06 02:06:56;;;;;;;2.45;1.70;;;384.40;1280.00;;;;;;4977503;28;20043;-67
2021/05/06 02:09:28;;;;;;;2.30;1.10;;;384.30;1280.00;;;;;;4977558;28;20049;-68
2021/05/06 02:11:59;;;;;;;2.63;1.20;;;384.30;1280.00;;;;;;4977281;28;20077;-67
2021/05/06 02:14:31;;;;;;;1.30;0.93;;;384.40;1280.00;;;;;;4977465;28;20023;-67
2021/05/06 02:17:02;;;;;;;1.45;0.90;;;384.40;1254.40;;;;;;4977370;28;20372;-68
2021/05/06 02:19:37;;;;;;;1.98;0.98;;;384.30;1254.40;;;;;;4977494;28;20081;-67
2021/05/06 02:22:09;;;;;;;2.20;1.05;;;384.30;1254.40;;;;;;4977332;28;20015;-68
2021/05/06 02:24:41;;;;;;;1.38;0.85;;;384.20;1280.00;;;;;;4977175;28;20054;-68
2021/05/06 02:27:11;;;;;;;3.20;0.85;;;384.20;1280.00;;;;;;4977236;28;20035;-68
2021/05/06 02:29:42;;;;;;;2.03;0.90;;;384.20;1254.40;;;;;;4977032;28;20034;-68
2021/05/06 02:32:14;;;;;;;1.95;1.00;;;384.20;1254.40;;;;;;4977022;28;20035;-67
2021/05/06 02:34:48;;;;;;;3.28;0.90;;;384.20;1254.40;;;;;;4977186;28;20023;-68
2021/05/06 02:37:20;;;;;;;1.20;0.95;;;384.10;1254.40;;;;;;4976833;28;20034;-67
2021/05/06 02:39:51;;;;;;;1.35;0.80;;;384.10;1254.40;;;;;;4977141;28;20130;-67
2021/05/06 02:42:23;;;;;;;1.52;1.02;;;384.10;1254.40;;;;;;4976936;28;20027;-67
2021/05/06 02:44:51;;;;;;;3.00;1.10;;;384.10;1228.80;;;;;;4976620;28;20093;-67
2021/05/06 02:47:19;;;;;;;3.65;1.10;;;384.10;1228.80;;;;;;4990412;28;20038;-67
2021/05/06 02:49:51;;;;;;;1.75;1.00;;;384.10;1203.20;;;;;;4996395;28;20026;-67
2021/05/06 02:57:55;;;;;;;2.85;1.10;;;384.00;1152.00;;;;;;4988139;28;20165;-66
2021/05/06 03:03:19;;;;;;;10.15;1.40;;;384.00;1152.00;;;;;;4993509;28;20044;-66
2021/05/06 03:05:56;;;;;;;10.20;1.42;;;384.00;1177.60;;;;;;4993544;28;20058;-67
2021/05/06 03:08:37;;;;;;;6.07;1.35;;;384.00;1152.00;;;;;;4993778;28;20027;-67
2021/05/06 03:25:19;;;;;;;6.38;1.30;;;359.30;1152.00;;;;;;4993613;28;20024;-66
2021/05/06 03:28:02;;;;;;;8.43;1.40;;;384.00;1126.40;;;;;;4977006;28;20096;-66
2021/05/06 03:41:43;;;;;;;3.20;1.17;;;384.00;1100.80;;;;;;4975969;28;20037;-67
2021/05/06 04:16:07;;;;;;;;;;;;;;;;;;;;;
2021/05/06 04:37:27;;;;;;;25.52;8.90;;;384.10;1100.80;;;;;;4934755;29;20573;-66
